Time;durP1;ratioP1;P1;durP2;ratioP2;P2;SDS_P1;SDS_P2;PMS_P1;PMS_P2;Temp;Humidity;BMP_temperature;BMP_pressure;BME280_temperature;BME280_humidity;BME280_pressure;Samples;Min_cycle;Max_cycle;Signal;HPM_P1;HPM_P2
2023/02/16 00:02:33;;;;;;;117.13;39.70;;;0.80;99.90;;;;;;6124600;28;20127;-76
2023/02/16 00:05:36;;;;;;;90.63;33.25;;;0.80;99.90;;;;;;6150751;23;20062;-80
2023/02/16 00:08:38;;;;;;;77.80;31.27;;;0.80;99.90;;;;;;6161649;28;20424;-80
2023/02/16 00:15:00;;;;;;;77.27;30.97;;;0.70;99.90;;;;;;6162942;29;20067;-80
2023/02/16 00:18:03;;;;;;;104.47;36.78;;;0.70;99.90;;;;;;6160851;28;20055;-81
2023/02/16 00:21:06;;;;;;;106.03;33.05;;;0.70;99.90;;;;;;6161768;28;20129;-81
2023/02/16 00:24:08;;;;;;;127.00;34.90;;;0.70;99.90;;;;;;6160495;28;20147;-81
2023/02/16 00:27:13;;;;;;;104.18;35.50;;;0.70;99.90;;;;;;6162731;29;20062;-81
2023/02/16 00:30:16;;;;;;;90.85;32.67;;;0.70;99.90;;;;;;6162156;29;20054;-81
2023/02/16 00:33:19;;;;;;;113.13;38.85;;;0.70;99.90;;;;;;6167981;29;20043;-83
2023/02/16 00:36:23;;;;;;;88.32;31.00;;;0.80;99.90;;;;;;6168583;29;20047;-83
2023/02/16 00:39:26;;;;;;;72.40;33.38;;;0.80;99.90;;;;;;6170005;29;20126;-83
2023/02/16 00:42:31;;;;;;;89.57;34.88;;;0.80;99.90;;;;;;6168710;29;20185;-83
2023/02/16 00:45:36;;;;;;;88.13;35.30;;;0.80;99.90;;;;;;6168754;29;20074;-82
2023/02/16 00:48:38;;;;;;;92.68;34.00;;;0.80;99.90;;;;;;6168582;29;20062;-82
2023/02/16 00:51:41;;;;;;;96.05;36.17;;;0.80;99.90;;;;;;6169281;28;20062;-84
2023/02/16 00:54:43;;;;;;;86.40;33.78;;;0.80;99.90;;;;;;6181968;28;20050;-82
2023/02/16 00:57:48;;;;;;;81.55;37.08;;;0.80;99.90;;;;;;6190363;28;20134;-82
2023/02/16 01:00:52;;;;;;;79.30;36.42;;;0.80;99.90;;;;;;6190819;28;20114;-82
2023/02/16 01:03:54;;;;;;;80.10;35.73;;;0.80;99.90;;;;;;6190288;28;20122;-83
2023/02/16 01:13:44;;;;;;;79.72;33.55;;;0.90;99.90;;;;;;6188860;28;20423;-82
2023/02/16 01:16:46;;;;;;;89.97;36.95;;;0.90;99.90;;;;;;6189761;28;20055;-81
2023/02/16 01:19:47;;;;;;;78.47;32.10;;;0.80;99.90;;;;;;6187680;28;20053;-82
2023/02/16 01:22:50;;;;;;;85.63;37.22;;;0.80;99.90;;;;;;6187583;28;20057;-81
2023/02/16 01:25:52;;;;;;;91.28;36.72;;;0.70;99.90;;;;;;6186716;28;20089;-81
2023/02/16 01:28:54;;;;;;;85.22;35.45;;;0.80;99.90;;;;;;6187259;28;20061;-80
2023/02/16 01:31:55;;;;;;;90.75;33.83;;;0.70;99.90;;;;;;6186992;28;20532;-81
2023/02/16 01:34:57;;;;;;;83.78;36.53;;;0.80;99.90;;;;;;6172425;28;20054;-82
2023/02/16 01:38:01;;;;;;;94.30;37.10;;;0.80;99.90;;;;;;6161805;29;20055;-81
2023/02/16 01:41:21;;;;;;;69.80;34.15;;;0.80;99.90;;;;;;6161720;29;20055;-80
2023/02/16 01:44:27;;;;;;;91.72;38.40;;;0.90;99.90;;;;;;6163844;29;20200;-80
2023/02/16 01:47:40;;;;;;;122.07;42.13;;;0.80;99.90;;;;;;6169551;29;20082;-83
2023/02/16 01:50:48;;;;;;;73.07;34.55;;;0.80;99.90;;;;;;6168281;28;20625;-83
2023/02/16 01:53:53;;;;;;;;;;;0.80;99.90;;;;;;6175490;28;20133;-80
2023/02/16 01:56:59;;;;;;;76.50;36.47;;;0.90;99.90;;;;;;6194541;28;19925;-80
2023/02/16 02:00:09;;;;;;;106.00;41.80;;;0.90;99.90;;;;;;6192580;28;20047;-80
2023/02/16 02:06:41;;;;;;;94.27;39.20;;;0.80;99.90;;;;;;6137935;28;20153;-79
2023/02/16 02:09:53;;;;;;;81.28;36.13;;;0.80;99.90;;;;;;6193618;28;20062;-80
2023/02/16 02:13:03;;;;;;;99.60;40.90;;;0.80;99.90;;;;;;6192132;28;20050;-80
2023/02/16 02:16:06;;;;;;;148.25;36.00;;;0.80;99.90;;;;;;6190140;28;20051;-80
2023/02/16 02:19:08;;;;;;;81.85;37.10;;;0.80;99.90;;;;;;6193458;28;20061;-80
2023/02/16 02:26:43;;;;;;;165.20;43.40;;;0.80;99.90;;;;;;6192987;28;20046;-80
2023/02/16 02:30:18;;;;;;;141.90;38.53;;;0.70;99.90;;;;;;6162942;28;20111;-83
2023/02/16 02:33:40;;;;;;;83.40;37.90;;;0.70;99.90;;;;;;6167014;29;20452;-83
2023/02/16 02:36:50;;;;;;;96.93;36.85;;;0.70;99.90;;;;;;6166057;28;20053;-80
2023/02/16 02:39:58;;;;;;;80.85;36.28;;;0.60;99.90;;;;;;6166606;29;20070;-83
2023/02/16 02:43:06;;;;;;;96.43;36.33;;;0.60;99.90;;;;;;6167503;29;20075;-83
2023/02/16 02:46:16;;;;;;;96.33;41.20;;;0.60;99.90;;;;;;6165919;29;20073;-81
2023/02/16 02:49:18;;;;;;;126.53;39.83;;;0.70;99.90;;;;;;6165161;29;20054;-82
2023/02/16 02:52:20;;;;;;;75.67;38.70;;;0.70;99.90;;;;;;6164724;29;20050;-83
2023/02/16 03:02:08;;;;;;;81.78;37.35;;;0.80;99.90;;;;;;6126520;29;20039;-79
2023/02/16 03:05:13;;;;;;;82.10;36.42;;;0.80;99.90;;;;;;6165649;28;20051;-80
2023/02/16 03:08:18;;;;;;;67.93;36.25;;;0.80;99.90;;;;;;6163061;29;20057;-80
2023/02/16 03:14:46;;;;;;;83.43;36.60;;;0.80;99.90;;;;;;6161567;29;20043;-83
2023/02/16 03:31:15;;;;;;;99.57;35.00;;;0.80;99.90;;;;;;6160517;29;20055;-82
2023/02/16 03:34:20;;;;;;;91.75;36.75;;;0.80;99.90;;;;;;6159003;29;20080;-80
2023/02/16 03:37:22;;;;;;;80.93;37.35;;;0.70;99.90;;;;;;6162855;29;20047;-79
2023/02/16 03:40:28;;;;;;;90.63;38.88;;;0.70;99.90;;;;;;6173064;28;20062;-82
2023/02/16 03:43:29;;;;;;;99.05;38.65;;;0.80;99.90;;;;;;6163470;29;20114;-80
2023/02/16 03:46:31;;;;;;;87.82;36.15;;;0.70;99.90;;;;;;6163972;29;20043;-79
2023/02/16 03:49:34;;;;;;;168.88;39.80;;;0.70;99.90;;;;;;6162805;29;20051;-79
2023/02/16 03:52:36;;;;;;;99.38;35.42;;;0.70;99.90;;;;;;6162142;29;20513;-80
2023/02/16 03:55:41;;;;;;;88.97;34.97;;;0.60;99.90;;;;;;6163913;28;20055;-80
2023/02/16 03:58:42;;;;;;;67.50;36.05;;;0.60;99.90;;;;;;6186714;28;20043;-80
2023/02/16 04:01:44;;;;;;;116.18;36.53;;;0.60;99.90;;;;;;6188787;28;20133;-80
2023/02/16 04:04:47;;;;;;;70.43;34.13;;;0.60;99.90;;;;;;6187949;28;20062;-80
2023/02/16 04:07:49;;;;;;;75.25;36.22;;;0.70;99.90;;;;;;6185977;28;20487;-82
2023/02/16 04:10:51;;;;;;;77.10;36.75;;;0.70;99.90;;;;;;6188103;28;20051;-80
2023/02/16 04:13:52;;;;;;;80.38;40.60;;;0.60;99.90;;;;;;6186251;28;20060;-79
2023/02/16 04:16:54;;;;;;;111.80;37.50;;;0.70;99.90;;;;;;6187309;28;20102;-79
2023/02/16 04:19:57;;;;;;;76.22;37.20;;;0.70;99.90;;;;;;6187105;28;20057;-81
2023/02/16 04:23:00;;;;;;;100.20;39.07;;;0.60;99.90;;;;;;6188122;28;20065;-82
2023/02/16 04:26:01;;;;;;;80.25;34.35;;;0.70;99.90;;;;;;6186962;28;20046;-81
2023/02/16 04:29:03;;;;;;;76.82;37.58;;;0.60;99.90;;;;;;6162992;28;20140;-82
2023/02/16 04:32:06;;;;;;;82.10;35.38;;;0.60;99.90;;;;;;6163052;29;20161;-82
2023/02/16 04:35:09;;;;;;;97.27;38.50;;;0.70;99.90;;;;;;6163519;29;20468;-82
2023/02/16 04:38:11;;;;;;;119.33;37.80;;;0.60;99.90;;;;;;6160623;29;20058;-82
2023/02/16 04:41:13;;;;;;;90.53;36.37;;;0.60;99.90;;;;;;6167772;28;20036;-82
2023/02/16 04:44:15;;;;;;;88.73;35.37;;;0.60;99.90;;;;;;6169681;28;20065;-82
2023/02/16 04:47:17;;;;;;;80.43;35.77;;;0.60;99.90;;;;;;6168871;29;20052;-82
2023/02/16 04:50:20;;;;;;;67.15;35.15;;;0.60;99.90;;;;;;6168087;28;20043;-82
2023/02/16 04:53:22;;;;;;;91.20;37.17;;;0.60;99.90;;;;;;6168066;28;20047;-81
2023/02/16 04:56:24;;;;;;;86.75;35.42;;;0.60;99.90;;;;;;6173604;28;20053;-81
2023/02/16 04:59:26;;;;;;;100.20;38.10;;;0.60;99.90;;;;;;6187537;28;20583;-81
2023/02/16 05:02:28;;;;;;;80.80;33.15;;;0.60;99.90;;;;;;6190388;28;20057;-81
2023/02/16 05:05:32;;;;;;;63.83;34.47;;;0.50;99.90;;;;;;6189949;28;20046;-81
2023/02/16 05:08:34;;;;;;;86.80;35.63;;;0.50;99.90;;;;;;6188980;28;20050;-78
2023/02/16 05:14:55;;;;;;;108.82;39.22;;;0.40;99.90;;;;;;6198653;28;20070;-81
2023/02/16 05:17:56;;;;;;;82.47;36.42;;;0.30;99.90;;;;;;6193255;28;20106;-81
2023/02/16 05:24:19;;;;;;;71.87;34.27;;;0.30;99.90;;;;;;6191582;28;20046;-81
2023/02/16 05:27:23;;;;;;;65.80;33.43;;;0.30;99.90;;;;;;6191406;28;20134;-81
2023/02/16 05:30:25;;;;;;;70.60;33.50;;;0.30;99.90;;;;;;6194693;28;20404;-80
2023/02/16 05:33:27;;;;;;;75.97;33.77;;;0.20;99.90;;;;;;6194532;28;20058;-81
2023/02/16 05:36:30;;;;;;;69.00;34.27;;;0.20;99.90;;;;;;6193235;28;20106;-80
2023/02/16 05:39:31;;;;;;;65.73;34.10;;;0.20;99.90;;;;;;6194109;28;20051;-80
2023/02/16 05:42:33;;;;;;;73.80;35.30;;;0.20;99.90;;;;;;6194294;28;20054;-80
2023/02/16 05:45:35;;;;;;;96.07;34.63;;;0.30;99.90;;;;;;6195404;28;20053;-80
2023/02/16 05:48:36;;;;;;;93.10;38.77;;;0.20;99.90;;;;;;6193516;28;20047;-80
2023/02/16 05:51:40;;;;;;;67.83;35.63;;;0.20;99.90;;;;;;6194033;28;20043;-81
2023/02/16 05:54:42;;;;;;;74.40;34.23;;;0.20;99.90;;;;;;6192235;28;20050;-81
2023/02/16 05:57:43;;;;;;;80.00;34.30;;;0.20;99.90;;;;;;6186600;28;20054;-81
2023/02/16 06:00:45;;;;;;;82.20;37.73;;;0.20;99.90;;;;;;6191588;28;20457;-80
2023/02/16 06:03:49;;;;;;;70.67;35.53;;;0.20;99.90;;;;;;6177844;28;20047;-83
2023/02/16 06:06:54;;;;;;;66.77;36.73;;;0.20;99.90;;;;;;6170955;23;20048;-79
2023/02/16 06:09:56;;;;;;;83.17;35.87;;;0.30;99.90;;;;;;6133579;28;20052;-79
2023/02/16 06:12:58;;;;;;;99.07;37.70;;;0.30;99.90;;;;;;6136879;28;20047;-79
2023/02/16 06:16:00;;;;;;;62.60;32.30;;;0.30;99.90;;;;;;6137893;28;20052;-78
2023/02/16 06:19:02;;;;;;;71.30;34.43;;;0.30;99.90;;;;;;6130493;29;20063;-78
2023/02/16 06:22:05;;;;;;;116.40;40.73;;;0.30;99.90;;;;;;6136661;29;20418;-79
2023/02/16 06:25:07;;;;;;;79.27;35.10;;;0.30;99.90;;;;;;6135557;29;20055;-78
2023/02/16 06:28:09;;;;;;;89.67;37.67;;;0.30;99.90;;;;;;6134253;29;20051;-78
2023/02/16 06:31:11;;;;;;;91.07;34.53;;;0.30;99.90;;;;;;6133897;29;20052;-79
2023/02/16 06:34:13;;;;;;;65.37;34.67;;;0.30;99.90;;;;;;6133137;29;20048;-78
2023/02/16 06:37:16;;;;;;;67.27;36.67;;;0.20;99.90;;;;;;6129413;29;20054;-78
2023/02/16 06:40:18;;;;;;;63.87;34.23;;;0.20;99.90;;;;;;6131540;29;20052;-78
2023/02/16 06:43:19;;;;;;;65.97;34.60;;;0.20;99.90;;;;;;6131622;29;20048;-78
2023/02/16 06:46:21;;;;;;;60.70;34.65;;;0.10;99.90;;;;;;6131156;29;20051;-79
2023/02/16 06:49:23;;;;;;;66.63;35.67;;;0.10;99.90;;;;;;6132586;29;20067;-79
2023/02/16 06:52:26;;;;;;;70.73;32.83;;;0.20;99.90;;;;;;6130976;28;20055;-79
2023/02/16 06:55:30;;;;;;;74.93;37.07;;;0.20;99.90;;;;;;6131205;29;20063;-79
2023/02/16 06:58:32;;;;;;;76.27;34.60;;;0.20;99.90;;;;;;6121539;29;20056;-79
2023/02/16 07:01:34;;;;;;;76.33;41.37;;;0.20;99.90;;;;;;6128622;28;20048;-78
2023/02/16 07:04:36;;;;;;;72.17;37.27;;;0.20;99.90;;;;;;6140718;28;20502;-79
2023/02/16 07:07:39;;;;;;;69.27;35.40;;;0.20;99.90;;;;;;6129621;29;20055;-78
2023/02/16 07:10:42;;;;;;;65.73;34.67;;;0.20;99.90;;;;;;6128649;28;20062;-78
2023/02/16 07:13:44;;;;;;;66.30;36.73;;;0.20;99.90;;;;;;6128776;28;20051;-78
2023/02/16 07:16:46;;;;;;;72.73;35.30;;;0.20;99.90;;;;;;6128159;28;20052;-78
2023/02/16 07:19:48;;;;;;;71.90;35.00;;;0.20;99.90;;;;;;6129042;28;20152;-80
2023/02/16 07:22:51;;;;;;;68.28;37.13;;;0.30;99.90;;;;;;6130223;29;20054;-78
2023/02/16 07:25:52;;;;;;;72.43;38.10;;;0.40;99.90;;;;;;6128878;28;20055;-78
2023/02/16 07:28:54;;;;;;;72.33;36.43;;;0.50;99.90;;;;;;6128289;28;20044;-78
2023/02/16 07:31:56;;;;;;;65.95;35.50;;;0.50;99.90;;;;;;6127685;28;20052;-78
2023/02/16 07:34:58;;;;;;;57.22;34.25;;;0.60;99.90;;;;;;6128038;29;20055;-78
2023/02/16 07:38:01;;;;;;;66.28;35.28;;;0.60;99.90;;;;;;6127581;28;20062;-78
2023/02/16 07:41:03;;;;;;;65.10;35.72;;;0.70;99.90;;;;;;6128621;28;20051;-78
2023/02/16 07:44:06;;;;;;;70.88;34.05;;;0.80;99.90;;;;;;6129607;28;20047;-78
2023/02/16 07:47:07;;;;;;;62.10;36.35;;;0.90;99.90;;;;;;6129516;29;20052;-78
2023/02/16 07:50:10;;;;;;;58.92;32.92;;;0.90;99.90;;;;;;6128690;28;20055;-78
2023/02/16 07:53:14;;;;;;;64.50;37.63;;;1.00;99.90;;;;;;6128948;28;20526;-78
2023/02/16 07:56:19;;;;;;;59.80;35.47;;;1.10;99.90;;;;;;6128824;28;20052;-78
2023/02/16 07:59:21;;;;;;;57.47;34.00;;;1.30;99.90;;;;;;6122869;29;20458;-78
2023/02/16 08:02:23;;;;;;;65.20;35.08;;;1.40;99.90;;;;;;6125594;29;20039;-78
2023/02/16 08:05:25;;;;;;;68.20;36.75;;;1.50;99.90;;;;;;6128944;28;20047;-78
2023/02/16 08:08:28;;;;;;;58.47;32.47;;;1.60;99.90;;;;;;6127555;28;20062;-78
2023/02/16 08:11:30;;;;;;;54.83;33.47;;;1.70;99.90;;;;;;6128585;29;20047;-78
2023/02/16 08:14:32;;;;;;;54.35;30.58;;;1.70;99.90;;;;;;6126741;28;20051;-78
2023/02/16 08:17:34;;;;;;;52.67;33.35;;;1.80;99.90;;;;;;6111920;28;20051;-78
2023/02/16 08:20:38;;;;;;;53.47;31.73;;;1.90;99.90;;;;;;6128742;29;20055;-79
2023/02/16 08:23:42;;;;;;;58.97;33.15;;;2.00;99.90;;;;;;6142546;29;20511;-78
2023/02/16 08:26:48;;;;;;;52.92;33.38;;;2.10;99.90;;;;;;6134838;29;20062;-80
2023/02/16 08:29:50;;;;;;;45.40;29.65;;;2.20;99.90;;;;;;6122233;28;20053;-78
2023/02/16 08:32:52;;;;;;;48.53;29.30;;;2.30;99.90;;;;;;6128552;29;20055;-78
2023/02/16 08:35:54;;;;;;;51.65;30.85;;;2.40;99.90;;;;;;6126963;29;20059;-78
2023/02/16 08:38:57;;;;;;;46.55;29.27;;;2.30;99.90;;;;;;6127967;29;20062;-78
2023/02/16 08:42:00;;;;;;;54.70;29.20;;;2.30;99.90;;;;;;6127684;29;20509;-78
2023/02/16 08:45:03;;;;;;;53.20;29.98;;;2.40;99.90;;;;;;6128851;29;20055;-78
2023/02/16 08:48:05;;;;;;;47.42;30.92;;;2.40;99.90;;;;;;6126021;29;20050;-79
2023/02/16 08:51:08;;;;;;;48.60;30.73;;;2.50;99.90;;;;;;6128833;29;20054;-78
2023/02/16 08:54:16;;;;;;;53.78;30.55;;;2.60;99.90;;;;;;6128678;29;20106;-80
2023/02/16 08:57:18;;;;;;;50.33;28.92;;;2.60;99.90;;;;;;6131980;29;20126;-79
2023/02/16 09:00:36;;;;;;;38.15;27.35;;;2.70;99.90;;;;;;6123032;28;20051;-80
2023/02/16 09:03:41;;;;;;;37.58;25.55;;;2.90;99.90;;;;;;6115024;29;20056;-80
2023/02/16 09:06:45;;;;;;;39.33;27.15;;;3.10;99.90;;;;;;6109592;29;20172;-78
2023/02/16 09:09:48;;;;;;;39.70;27.35;;;3.00;99.90;;;;;;6112407;29;20063;-78
2023/02/16 09:12:50;;;;;;;40.17;26.60;;;3.00;99.90;;;;;;6109254;29;20055;-79
2023/02/16 09:15:51;;;;;;;40.88;29.60;;;3.00;99.90;;;;;;6109245;29;20048;-78
2023/02/16 09:18:53;;;;;;;39.05;27.00;;;3.20;99.90;;;;;;6108199;29;20098;-78
2023/02/16 09:21:55;;;;;;;38.05;26.83;;;3.40;99.90;;;;;;6128374;28;20059;-79
2023/02/16 09:24:58;;;;;;;39.42;27.48;;;3.60;99.90;;;;;;6134788;29;20051;-78
2023/02/16 09:28:00;;;;;;;29.63;22.70;;;3.70;99.90;;;;;;6133282;29;20521;-78
2023/02/16 09:31:10;;;;;;;39.92;26.40;;;3.80;99.90;;;;;;6132387;29;20054;-78
2023/02/16 09:34:16;;;;;;;37.90;25.23;;;4.00;99.90;;;;;;6132461;29;20044;-78
2023/02/16 09:37:18;;;;;;;37.80;23.52;;;4.30;99.90;;;;;;6130556;29;20055;-78
2023/02/16 09:40:21;;;;;;;31.92;23.73;;;4.80;99.90;;;;;;6130418;29;20059;-78
2023/02/16 09:43:35;;;;;;;31.42;22.00;;;5.20;99.90;;;;;;6131409;29;20048;-78
2023/02/16 09:46:38;;;;;;;27.70;22.20;;;5.60;99.90;;;;;;6128374;29;20048;-77
2023/02/16 09:49:42;;;;;;;31.83;22.67;;;5.90;99.90;;;;;;6127904;29;20063;-77
2023/02/16 09:52:52;;;;;;;32.85;22.13;;;6.10;99.90;;;;;;6128092;29;20047;-77
2023/02/16 09:56:04;;;;;;;29.40;20.80;;;6.60;99.90;;;;;;6127817;29;20954;-77
2023/02/16 09:59:13;;;;;;;27.85;20.42;;;7.10;99.90;;;;;;6128030;29;20047;-77
2023/02/16 10:02:38;;;;;;;26.05;20.95;;;7.40;99.90;;;;;;6118242;29;20040;-76
2023/02/16 10:05:47;;;;;;;28.85;21.00;;;7.70;99.90;;;;;;6127376;28;20391;-77
2023/02/16 10:08:52;;;;;;;26.77;19.95;;;8.20;99.90;;;;;;6127257;28;20075;-76
2023/02/16 10:12:02;;;;;;;25.50;20.45;;;8.50;99.90;;;;;;6126806;29;20426;-77
2023/02/16 10:15:12;;;;;;;26.60;21.42;;;8.90;99.90;;;;;;6126823;29;20066;-76
2023/02/16 10:18:21;;;;;;;26.42;20.10;;;9.10;99.90;;;;;;6127096;29;20051;-76
2023/02/16 10:21:28;;;;;;;26.88;20.50;;;9.30;99.90;;;;;;6127108;29;20052;-77
2023/02/16 10:24:38;;;;;;;27.02;20.23;;;9.80;99.90;;;;;;6127626;28;20054;-77
2023/02/16 10:27:44;;;;;;;26.50;22.20;;;10.20;99.90;;;;;;6122689;29;20489;-77
2023/02/16 10:30:50;;;;;;;23.50;19.52;;;10.60;99.90;;;;;;6103867;29;20058;-76
2023/02/16 10:34:05;;;;;;;24.98;19.17;;;11.00;99.90;;;;;;6103112;29;20059;-76
2023/02/16 10:37:19;;;;;;;22.45;17.52;;;11.30;99.90;;;;;;6120365;29;20043;-77
2023/02/16 10:40:33;;;;;;;22.92;18.63;;;11.60;99.90;;;;;;6126875;29;20110;-77
2023/02/16 10:43:44;;;;;;;22.88;18.90;;;11.90;99.90;;;;;;6127373;29;20621;-77
2023/02/16 10:46:51;;;;;;;26.77;18.90;;;12.10;99.90;;;;;;6125523;29;20059;-77
2023/02/16 10:49:54;;;;;;;23.38;18.05;;;12.40;99.90;;;;;;6126630;29;20066;-77
2023/02/16 10:53:00;;;;;;;25.63;18.85;;;12.60;99.90;;;;;;6127222;29;20055;-77
2023/02/16 10:56:20;;;;;;;23.48;19.10;;;12.80;99.90;;;;;;6127616;29;20138;-77
2023/02/16 10:59:26;;;;;;;31.83;17.98;;;13.10;99.90;;;;;;6128023;29;20413;-77
2023/02/16 11:02:42;;;;;;;22.08;17.55;;;13.40;99.90;;;;;;6127750;29;20048;-77
2023/02/16 11:05:44;;;;;;;19.60;17.48;;;13.40;99.90;;;;;;6127586;29;20128;-77
2023/02/16 11:08:50;;;;;;;19.10;16.73;;;13.70;99.90;;;;;;6127609;29;20052;-77
2023/02/16 11:11:51;;;;;;;20.13;16.67;;;14.20;99.90;;;;;;6127496;29;20056;-78
2023/02/16 11:14:58;;;;;;;23.33;16.92;;;14.30;99.90;;;;;;6127915;29;20074;-77
2023/02/16 11:18:04;;;;;;;18.95;16.25;;;14.20;99.90;;;;;;6127095;29;20058;-77
2023/02/16 11:21:08;;;;;;;22.85;16.75;;;14.10;99.80;;;;;;6127315;28;20458;-77
2023/02/16 11:24:13;;;;;;;19.83;15.95;;;14.40;99.10;;;;;;6127424;29;20043;-77
2023/02/16 11:27:19;;;;;;;21.35;17.88;;;14.30;98.30;;;;;;6127625;29;20085;-77
2023/02/16 11:30:31;;;;;;;19.52;16.38;;;14.10;98.20;;;;;;6127633;28;20062;-77
2023/02/16 11:33:33;;;;;;;24.83;18.15;;;14.10;98.30;;;;;;6127290;29;20129;-77
2023/02/16 11:36:38;;;;;;;23.83;16.70;;;14.00;98.10;;;;;;6126908;29;20051;-78
2023/02/16 11:39:48;;;;;;;18.63;16.27;;;14.10;98.10;;;;;;6127881;29;20059;-77
2023/02/16 11:42:52;;;;;;;23.38;20.92;;;14.60;98.10;;;;;;6128035;29;20521;-77
2023/02/16 11:46:01;;;;;;;34.65;25.98;;;15.00;97.10;;;;;;6127481;28;20047;-78
2023/02/16 11:49:21;;;;;;;23.48;18.73;;;15.20;96.50;;;;;;6127067;29;20059;-77
2023/02/16 11:52:29;;;;;;;24.98;20.20;;;15.50;96.30;;;;;;6127278;29;20063;-77
2023/02/16 11:55:32;;;;;;;25.38;18.27;;;15.70;95.90;;;;;;6127576;29;20520;-78
2023/02/16 11:58:34;;;;;;;34.22;22.92;;;15.60;95.50;;;;;;6126871;29;20059;-77
2023/02/16 12:02:06;;;;;;;19.85;16.20;;;15.60;95.20;;;;;;6127213;29;20051;-77
2023/02/16 12:05:22;;;;;;;21.52;17.17;;;15.70;94.50;;;;;;6102203;29;20052;-78
2023/02/16 12:08:57;;;;;;;19.52;16.15;;;15.80;94.60;;;;;;6162554;23;20047;-78
2023/02/16 12:12:10;;;;;;;16.27;14.32;;;16.20;94.30;;;;;;6158750;29;20055;-78
2023/02/16 12:15:21;;;;;;;17.48;13.98;;;16.60;93.50;;;;;;6159085;29;20519;-79
2023/02/16 12:18:37;;;;;;;15.75;13.70;;;16.30;92.40;;;;;;6174183;28;20063;-78
2023/02/16 12:21:44;;;;;;;16.88;13.75;;;16.00;92.40;;;;;;6180850;28;20518;-77
2023/02/16 12:24:57;;;;;;;51.13;31.03;;;15.80;92.40;;;;;;6181483;28;20142;-77
2023/02/16 12:28:12;;;;;;;79.05;58.38;;;15.70;92.50;;;;;;6179490;28;20061;-78
2023/02/16 12:31:21;;;;;;;111.35;62.78;;;15.80;92.50;;;;;;6186023;28;20570;-78
2023/02/16 12:34:32;;;;;;;30.75;27.55;;;15.80;92.20;;;;;;6199175;28;20053;-78
2023/02/16 12:37:42;;;;;;;33.50;29.92;;;15.60;92.10;;;;;;6182775;28;20050;-79
2023/02/16 12:40:54;;;;;;;17.30;14.55;;;15.50;92.30;;;;;;6177628;28;20056;-80
2023/02/16 12:44:00;;;;;;;24.90;18.98;;;15.30;92.20;;;;;;6179292;28;20126;-79
2023/02/16 12:47:07;;;;;;;45.72;40.88;;;15.20;92.60;;;;;;6179427;28;20690;-82
2023/02/16 12:50:18;;;;;;;22.85;18.25;;;15.10;92.50;;;;;;6178408;28;20090;-82
2023/02/16 12:53:26;;;;;;;31.25;27.80;;;15.20;92.40;;;;;;6179591;28;20047;-82
2023/02/16 12:56:33;;;;;;;27.38;24.42;;;15.50;92.60;;;;;;6177390;28;20418;-81
2023/02/16 12:59:40;;;;;;;30.38;27.15;;;16.00;92.30;;;;;;6165983;28;20059;-81
2023/02/16 13:02:47;;;;;;;20.88;17.42;;;16.40;91.60;;;;;;6170183;29;20303;-80
2023/02/16 13:05:58;;;;;;;16.27;13.48;;;17.00;91.10;;;;;;6156918;29;20061;-79
2023/02/16 13:09:11;;;;;;;16.33;11.82;;;17.30;90.30;;;;;;6154988;29;20043;-80
2023/02/16 13:12:24;;;;;;;13.07;11.70;;;17.30;90.40;;;;;;6154512;29;20059;-81
2023/02/16 13:15:32;;;;;;;18.15;12.10;;;17.80;89.60;;;;;;6155097;29;20047;-81
2023/02/16 13:18:38;;;;;;;16.75;13.90;;;18.10;88.40;;;;;;6155723;29;20140;-79
2023/02/16 13:22:01;;;;;;;16.30;11.35;;;18.30;87.20;;;;;;6172567;28;20058;-80
2023/02/16 13:25:21;;;;;;;18.63;11.65;;;18.40;86.10;;;;;;6180257;28;20052;-81
2023/02/16 13:28:41;;;;;;;25.23;13.07;;;18.20;84.50;;;;;;6179503;28;20061;-82
2023/02/16 13:31:56;;;;;;;16.73;11.05;;;17.90;83.30;;;;;;6188759;28;20126;-82
2023/02/16 13:35:13;;;;;;;18.35;11.32;;;17.90;84.30;;;;;;6159219;29;20051;-80
2023/02/16 13:38:42;;;;;;;13.18;9.85;;;17.80;84.10;;;;;;6167772;28;20051;-81
2023/02/16 13:42:10;;;;;;;13.30;9.77;;;18.00;83.20;;;;;;6161849;29;20051;-81
2023/02/16 13:45:15;;;;;;;13.55;8.75;;;18.00;82.30;;;;;;6161967;29;20055;-82
2023/02/16 13:48:23;;;;;;;11.65;9.18;;;17.70;81.80;;;;;;6159809;28;20047;-84
2023/02/16 13:51:29;;;;;;;12.13;8.43;;;17.30;81.90;;;;;;6178902;28;20051;-80
2023/02/16 13:54:35;;;;;;;9.13;7.57;;;17.20;81.20;;;;;;6162108;29;20130;-80
2023/02/16 13:58:06;;;;;;;10.75;7.20;;;17.10;80.80;;;;;;6164830;28;20051;-81
2023/02/16 14:01:37;;;;;;;11.55;7.80;;;16.90;80.00;;;;;;6162188;29;20047;-80
2023/02/16 14:05:04;;;;;;;9.77;6.55;;;16.70;79.80;;;;;;6160785;28;20055;-83
2023/02/16 14:08:12;;;;;;;7.45;6.22;;;16.60;79.20;;;;;;6184691;28;20050;-81
2023/02/16 14:11:15;;;;;;;10.95;7.28;;;16.50;79.50;;;;;;6185320;28;20062;-81
2023/02/16 14:14:30;;;;;;;13.43;8.35;;;16.50;78.80;;;;;;6185732;28;20420;-81
2023/02/16 14:17:33;;;;;;;10.73;7.75;;;16.40;77.90;;;;;;6184058;28;20607;-81
2023/02/16 14:20:35;;;;;;;13.68;8.32;;;16.20;78.10;;;;;;6184241;28;20053;-83
2023/02/16 14:23:37;;;;;;;13.27;6.78;;;16.10;78.40;;;;;;6188536;28;20051;-80
2023/02/16 14:26:55;;;;;;;11.65;6.53;;;16.10;78.80;;;;;;6190687;28;20043;-81
2023/02/16 14:30:01;;;;;;;8.93;6.25;;;16.10;78.80;;;;;;6175333;28;20043;-81
2023/02/16 14:33:17;;;;;;;8.02;6.72;;;16.10;79.00;;;;;;6174067;28;20415;-80
2023/02/16 14:36:20;;;;;;;9.10;5.93;;;16.10;78.70;;;;;;6187283;28;20047;-80
2023/02/16 14:39:23;;;;;;;9.38;6.85;;;15.90;78.70;;;;;;6158420;29;20051;-80
2023/02/16 14:42:31;;;;;;;9.98;6.55;;;15.80;79.10;;;;;;6158206;29;20106;-79
2023/02/16 14:45:43;;;;;;;;;;;15.70;78.80;;;;;;6169247;28;20054;-81
2023/02/16 14:49:17;;;;;;;9.70;6.38;;;15.60;78.70;;;;;;6186099;28;19926;-81
2023/02/16 14:52:48;;;;;;;10.38;6.72;;;15.50;78.90;;;;;;6159218;28;20129;-80
2023/02/16 14:56:23;;;;;;;8.80;6.80;;;15.50;78.50;;;;;;6173764;28;20051;-81
2023/02/16 14:59:32;;;;;;;9.43;7.15;;;15.30;78.80;;;;;;6169915;28;20147;-81
2023/02/16 15:02:38;;;;;;;9.43;7.05;;;15.20;79.30;;;;;;6182229;28;20055;-81
2023/02/16 15:06:12;;;;;;;11.23;7.32;;;15.20;79.60;;;;;;6183642;28;20081;-84
2023/02/16 15:09:16;;;;;;;13.60;8.85;;;15.10;80.10;;;;;;6180145;28;20054;-83
2023/02/16 15:12:21;;;;;;;50.15;39.90;;;15.00;80.50;;;;;;6183081;28;20054;-81
2023/02/16 15:15:36;;;;;;;19.60;15.82;;;14.90;80.70;;;;;;6186103;28;20047;-81
2023/02/16 15:18:41;;;;;;;13.20;10.05;;;14.80;81.10;;;;;;6186786;28;20066;-81
2023/02/16 15:21:43;;;;;;;16.83;13.40;;;14.80;81.30;;;;;;6184885;28;20042;-81
2023/02/16 15:24:55;;;;;;;15.00;8.10;;;14.70;81.50;;;;;;6182367;28;20050;-81
2023/02/16 15:27:59;;;;;;;14.23;9.20;;;14.60;81.70;;;;;;6183377;28;20062;-80
2023/02/16 15:31:07;;;;;;;13.02;9.90;;;14.50;81.90;;;;;;6184398;28;20062;-80
2023/02/16 15:34:14;;;;;;;16.80;8.23;;;14.40;82.00;;;;;;6189780;28;20038;-80
2023/02/16 15:37:32;;;;;;;11.95;7.90;;;14.30;82.40;;;;;;6204067;28;20058;-81
2023/02/16 15:40:34;;;;;;;21.65;14.15;;;14.20;82.80;;;;;;6212509;28;20050;-81
2023/02/16 15:43:39;;;;;;;12.50;9.02;;;14.10;83.00;;;;;;6217755;28;20042;-79
2023/02/16 15:46:43;;;;;;;14.30;9.68;;;14.10;83.30;;;;;;6219192;28;20046;-80
2023/02/16 15:49:45;;;;;;;41.08;22.05;;;14.00;83.50;;;;;;6210015;28;20050;-80
2023/02/16 15:52:47;;;;;;;40.97;25.27;;;14.00;83.90;;;;;;6185920;28;20066;-79
2023/02/16 15:55:50;;;;;;;35.15;28.27;;;13.90;84.30;;;;;;6185432;28;20054;-79
2023/02/16 15:58:52;;;;;;;15.52;12.18;;;13.90;84.60;;;;;;6186176;28;20059;-79
2023/02/16 16:01:59;;;;;;;13.20;11.05;;;13.80;84.90;;;;;;6184953;28;20051;-80
2023/02/16 16:05:04;;;;;;;17.40;11.40;;;13.80;85.40;;;;;;6186517;28;20204;-81
2023/02/16 16:08:08;;;;;;;15.23;9.45;;;13.70;86.30;;;;;;6185373;28;20054;-81
2023/02/16 16:11:19;;;;;;;15.70;9.77;;;13.70;86.10;;;;;;6185562;28;20061;-80
2023/02/16 16:14:23;;;;;;;15.95;9.52;;;13.60;86.50;;;;;;6190344;28;20098;-79
2023/02/16 16:17:51;;;;;;;15.73;10.68;;;13.50;86.80;;;;;;6180494;28;20054;-80
2023/02/16 16:24:44;;;;;;;17.40;10.07;;;13.50;87.70;;;;;;6174983;28;20059;-80
2023/02/16 16:28:00;;;;;;;17.70;9.27;;;13.40;88.40;;;;;;6171671;28;20043;-79
2023/02/16 16:35:27;;;;;;;14.00;9.68;;;13.20;89.10;;;;;;6153904;28;20440;-84
2023/02/16 16:38:41;;;;;;;13.70;9.73;;;13.20;89.50;;;;;;6148535;28;20058;-80
2023/02/16 16:41:45;;;;;;;16.23;10.55;;;13.00;89.80;;;;;;6188014;28;20055;-82
2023/02/16 16:44:58;;;;;;;16.58;10.88;;;13.00;90.00;;;;;;6188128;28;20046;-81
2023/02/16 16:48:03;;;;;;;18.30;12.27;;;12.90;90.20;;;;;;6189223;28;20055;-79
2023/02/16 16:51:12;;;;;;;16.20;11.63;;;12.80;90.30;;;;;;6192144;28;20066;-79
2023/02/16 16:54:32;;;;;;;19.90;12.40;;;12.80;90.50;;;;;;6191966;28;20043;-80